deformed-offering

Nearby METAR Reports

 

KSJC - San Jose, California, USA
Distance from station: NE 9mi, 14km
Updated: Mon, 26-Sep-2022 7:53am PDT
Overcast
Overcast
 Wind from NW
Wind: NW 5 mph , 7 km/h
Temperature: 63°F , 17°C
Dew Point: 55°F , 13°C
Humidity: 77%
Barometer: 30.00 inHg , 1015.9 hPa
Clouds: Overcast
Visibility: 10 miles , 16 km
Cloud details: Overcast 1200 ft
2022/09/26 14:53 KSJC 261453Z 32004KT 10SM OVC012 17/13 A3000 RMK AO2 SLP157 T01670133 53006
KPAO - Palo Alto, California, USA
Distance from station: NNW 14mi, 23km
Updated: Mon, 26-Sep-2022 6:47am PDT
Overcast
Overcast
 Wind from calm
Wind: Calm
Temperature: 59°F , 15°C
Dew Point: 55°F , 13°C
Humidity: 88%
Barometer: 29.99 inHg , 1015.6 hPa
Clouds: Overcast
Visibility: 8 miles , 13 km
Cloud details: Overcast 1000 ft
2022/09/26 13:47 KPAO 261347Z 00000KT 8SM OVC010 15/13 A2999
 
KSQL - San Carlos Airpo, California, USA
Distance from station: NW 21mi, 34km
Updated: Mon, 26-Sep-2022 6:55am PDT
Overcast
Overcast
 Wind from calm
Wind: Calm
Temperature: 59°F , 15°C
Dew Point: 55°F , 13°C
Humidity: 88%
Barometer: 30.00 inHg , 1015.9 hPa
Clouds: Overcast
Visibility: 10 miles , 16 km
Cloud details: Overcast 1100 ft
2022/09/26 13:55 KSQL 261355Z AUTO 00000KT 10SM OVC011 15/13 A3000 RMK AO2
KWVI - Watsonville, California, USA
Distance from station: SSE 27mi, 44km
Updated: Mon, 26-Sep-2022 7:53am PDT
Mist, Overcast
Mist, Overcast
 Wind from calm
Wind: Calm
Temperature: 55°F , 13°C
Dew Point: 55°F , 13°C
Humidity: 100%
Barometer: 30.00 inHg , 1015.9 hPa
Summary: Mist
Clouds: Overcast
Visibility: 3 miles , 5 km
Cloud details: Overcast 300 ft
2022/09/26 14:53 KWVI 261453Z AUTO 00000KT 3SM BR OVC003 13/13 A3000 RMK AO2 SLP159 T01280128 53006
 
KHWD - Hayward, California, USA
Distance from station: N 28mi, 44km
Updated: Mon, 26-Sep-2022 7:54am PDT
Overcast
Overcast
 Wind from calm
Wind: Calm
Temperature: 59°F , 15°C
Dew Point: 55°F , 13°C
Humidity: 88%
Barometer: 30.00 inHg , 1015.9 hPa
Clouds: Overcast
Visibility: 10 miles , 16 km
Cloud details: Overcast 1000 ft
2022/09/26 14:54 KHWD 261454Z 00000KT 10SM OVC010 15/13 A3000 RMK AO2 SLP167 T01500128 53006
KSFO - San Francisco, California, USA
Distance from station: NW 30mi, 49km
Updated: Mon, 26-Sep-2022 7:46am PDT
Overcast
Overcast
 Wind from WNW
Wind: WNW 7 mph , 11 km/h
Temperature: 59°F , 15°C
Dew Point: 55°F , 13°C
Humidity: 88%
Barometer: 30.00 inHg , 1015.9 hPa
Clouds: Overcast
Visibility: 10 miles , 16 km
Cloud details: Few Clouds 600 ft
Overcast 1000 ft
2022/09/26 14:46 KSFO 261446Z 29006KT 10SM FEW006 OVC010 15/13 A3000 RMK AO2 T01500128
 
KHAF - Half Moon Bay, California, USA
Distance from station: WNW 31mi, 50km
Updated: Mon, 26-Sep-2022 7:55am PDT
Overcast
Overcast
 Wind from calm
Wind: Calm
Temperature: 57°F , 14°C
Dew Point: 57°F , 14°C
Humidity: 100%
Barometer: 30.01 inHg , 1016.3 hPa
Clouds: Overcast
Visibility: 7 miles , 11 km
Cloud details: Overcast 700 ft
2022/09/26 14:55 KHAF 261455Z AUTO 00000KT 7SM OVC007 14/14 A3001 RMK AO2
KLVK - Livermore, California, USA
Distance from station: NNE 31mi, 51km
Updated: Mon, 26-Sep-2022 7:53am PDT
Overcast
Overcast
 Wind from SSW
Wind: SSW 7 mph , 11 km/h
Temperature: 57°F , 14°C
Dew Point: 55°F , 13°C
Humidity: 94%
Barometer: 29.99 inHg , 1015.6 hPa
Clouds: Overcast
Visibility: 9 miles , 14 km
Cloud details: Overcast 700 ft
2022/09/26 14:53 KLVK 261453Z 21006KT 9SM OVC007 14/13 A2999 RMK AO2 SLP152 T01440128 53008
 
KOAK - Oakland, California, USA
Distance from station: NNW 33mi, 53km
Updated: Mon, 26-Sep-2022 7:53am PDT
Overcast
Overcast
 Wind from WNW
Wind: WNW 6 mph , 9 km/h
Temperature: 59°F , 15°C
Dew Point: 55°F , 13°C
Humidity: 88%
Barometer: 30.00 inHg , 1015.9 hPa
Clouds: Overcast
Visibility: 10 miles , 16 km
Cloud details: Few Clouds 600 ft
Overcast 900 ft
2022/09/26 14:53 KOAK 261453Z 30005KT 10SM FEW006 OVC009 15/13 A3000 RMK AO2 SLP159 T01500128 53005
KCVH - Hollister Muni, California, USA
Distance from station: SE 42mi, 68km
Updated: Mon, 26-Sep-2022 7:55am PDT
Mist, Overcast
Mist, Overcast
 Wind from calm
Wind: Calm
Temperature: 57°F , 14°C
Dew Point: 55°F , 13°C
Humidity: 94%
Barometer: 30.01 inHg , 1016.3 hPa
Summary: Mist
Clouds: Overcast
Visibility: 2 miles , 3 km
Cloud details: Overcast 200 ft
2022/09/26 14:55 KCVH 261455Z AUTO 00000KT 2SM BR OVC002 14/13 A3001 RMK A01
 
KSNS - Salinas, California, USA
Distance from station: SSE 48mi, 77km
Updated: Mon, 26-Sep-2022 7:53am PDT
Haze, Overcast
Haze, Overcast
 Wind from calm
Wind: Calm
Temperature: 61°F , 16°C
Dew Point: 55°F , 13°C
Humidity: 83%
Barometer: 30.00 inHg , 1015.9 hPa
Summary: Haze
Clouds: Overcast
Visibility: 6 miles , 10 km
Cloud details: Overcast 500 ft
2022/09/26 14:53 KSNS 261453Z 00000KT 6SM HZ OVC005 16/13 A3000 RMK AO2 SLP166 T01610133 53007
KMRY - Monterey, California, USA
Distance from station: SSE 49mi, 78km
Updated: Mon, 26-Sep-2022 7:54am PDT
Mist, Overcast
Mist, Overcast
 Wind from calm
Wind: Calm
Temperature: 57°F , 14°C
Dew Point: 55°F , 13°C
Humidity: 94%
Barometer: 30.00 inHg , 1015.9 hPa
Summary: Mist
Clouds: Overcast
Visibility: 3 miles , 5 km
Cloud details: Overcast 200 ft
2022/09/26 14:54 KMRY 261454Z 00000KT 3SM BR OVC002 14/13 A3000 RMK AO2 SLP171 T01390133 53006
 
KCCR - Concord, California, USA
Distance from station: N 50mi, 81km
Updated: Mon, 26-Sep-2022 7:53am PDT
Clear
Clear
 Wind from calm
Wind: Calm
Temperature: 59°F , 15°C
Dew Point: 54°F , 12°C
Humidity: 82%
Barometer: 29.99 inHg , 1015.6 hPa
Clouds: Clear
Visibility: 10 miles , 16 km
2022/09/26 14:53 KCCR 261453Z 00000KT 10SM CLR 15/12 A2999 RMK AO2 SLP140 T01500122 53009
deformed-offering